sensor_id;sensor_type;location;lat;lon;timestamp;temperature;humidity
67820;DHT22;54618;52.018;5.576;2023-06-10T00:01:58;20.80;46.00
67820;DHT22;54618;52.018;5.576;2023-06-10T00:04:25;20.80;46.00
67820;DHT22;54618;52.018;5.576;2023-06-10T00:06:51;20.80;45.80
67820;DHT22;54618;52.018;5.576;2023-06-10T00:09:16;20.80;46.00
67820;DHT22;54618;52.018;5.576;2023-06-10T00:11:43;20.80;46.10
67820;DHT22;54618;52.018;5.576;2023-06-10T00:14:09;20.70;46.10
67820;DHT22;54618;52.018;5.576;2023-06-10T00:16:35;20.70;46.00
67820;DHT22;54618;52.018;5.576;2023-06-10T00:19:02;20.70;46.20
67820;DHT22;54618;52.018;5.576;2023-06-10T00:21:29;20.60;46.10
67820;DHT22;54618;52.018;5.576;2023-06-10T00:23:55;20.60;46.10
67820;DHT22;54618;52.018;5.576;2023-06-10T00:26:24;20.60;46.20
67820;DHT22;54618;52.018;5.576;2023-06-10T00:28:51;20.60;46.20
67820;DHT22;54618;52.018;5.576;2023-06-10T00:31:17;20.60;46.10
67820;DHT22;54618;52.018;5.576;2023-06-10T00:33:43;20.60;46.10
67820;DHT22;54618;52.018;5.576;2023-06-10T00:36:09;20.50;46.10
67820;DHT22;54618;52.018;5.576;2023-06-10T00:38:35;20.60;46.00
67820;DHT22;54618;52.018;5.576;2023-06-10T00:41:01;20.50;45.80
67820;DHT22;54618;52.018;5.576;2023-06-10T00:43:26;20.50;45.70
67820;DHT22;54618;52.018;5.576;2023-06-10T00:45:52;20.50;45.80
67820;DHT22;54618;52.018;5.576;2023-06-10T00:48:18;20.50;45.80
67820;DHT22;54618;52.018;5.576;2023-06-10T00:50:45;20.40;46.50
67820;DHT22;54618;52.018;5.576;2023-06-10T00:53:12;20.40;45.90
67820;DHT22;54618;52.018;5.576;2023-06-10T00:55:37;20.30;45.80
67820;DHT22;54618;52.018;5.576;2023-06-10T00:58:03;20.30;45.80
67820;DHT22;54618;52.018;5.576;2023-06-10T01:00:29;20.30;45.90
67820;DHT22;54618;52.018;5.576;2023-06-10T01:02:55;20.20;45.90
67820;DHT22;54618;52.018;5.576;2023-06-10T01:05:21;20.20;46.00
67820;DHT22;54618;52.018;5.576;2023-06-10T01:08:03;20.20;45.90
67820;DHT22;54618;52.018;5.576;2023-06-10T01:10:36;20.10;46.90
67820;DHT22;54618;52.018;5.576;2023-06-10T01:13:03;20.10;46.10
67820;DHT22;54618;52.018;5.576;2023-06-10T01:15:32;20.00;46.20
67820;DHT22;54618;52.018;5.576;2023-06-10T01:18:03;20.00;46.20
67820;DHT22;54618;52.018;5.576;2023-06-10T01:20:30;20.00;46.30
67820;DHT22;54618;52.018;5.576;2023-06-10T01:23:00;19.90;46.10
67820;DHT22;54618;52.018;5.576;2023-06-10T01:25:29;19.90;46.30
67820;DHT22;54618;52.018;5.576;2023-06-10T01:33:39;19.80;48.00
67820;DHT22;54618;52.018;5.576;2023-06-10T01:36:06;19.80;46.00
67820;DHT22;54618;52.018;5.576;2023-06-10T01:38:38;19.80;46.00
67820;DHT22;54618;52.018;5.576;2023-06-10T01:41:06;19.70;46.30
67820;DHT22;54618;52.018;5.576;2023-06-10T01:43:36;19.70;46.20
67820;DHT22;54618;52.018;5.576;2023-06-10T01:46:02;19.70;46.40
67820;DHT22;54618;52.018;5.576;2023-06-10T01:48:28;19.60;46.20
67820;DHT22;54618;52.018;5.576;2023-06-10T01:50:53;19.60;46.40
67820;DHT22;54618;52.018;5.576;2023-06-10T01:53:21;19.50;46.50
67820;DHT22;54618;52.018;5.576;2023-06-10T01:55:47;19.50;46.60
67820;DHT22;54618;52.018;5.576;2023-06-10T01:58:13;19.40;46.50
67820;DHT22;54618;52.018;5.576;2023-06-10T02:00:38;19.40;46.60
67820;DHT22;54618;52.018;5.576;2023-06-10T02:03:04;19.40;46.80
67820;DHT22;54618;52.018;5.576;2023-06-10T02:05:32;19.30;46.80
67820;DHT22;54618;52.018;5.576;2023-06-10T02:07:58;19.30;46.90
67820;DHT22;54618;52.018;5.576;2023-06-10T02:10:24;19.20;47.10
67820;DHT22;54618;52.018;5.576;2023-06-10T02:12:50;19.20;47.10
67820;DHT22;54618;52.018;5.576;2023-06-10T02:15:15;19.10;47.10
67820;DHT22;54618;52.018;5.576;2023-06-10T02:17:41;19.00;47.20
67820;DHT22;54618;52.018;5.576;2023-06-10T02:20:07;19.00;47.30
67820;DHT22;54618;52.018;5.576;2023-06-10T02:22:36;19.00;47.50
67820;DHT22;54618;52.018;5.576;2023-06-10T02:25:02;18.90;47.40
67820;DHT22;54618;52.018;5.576;2023-06-10T02:27:29;18.90;47.50
67820;DHT22;54618;52.018;5.576;2023-06-10T02:29:56;18.90;47.50
67820;DHT22;54618;52.018;5.576;2023-06-10T02:32:21;18.80;47.50
67820;DHT22;54618;52.018;5.576;2023-06-10T02:34:47;18.80;47.50
67820;DHT22;54618;52.018;5.576;2023-06-10T02:37:14;18.80;47.60
67820;DHT22;54618;52.018;5.576;2023-06-10T02:39:40;18.80;47.80
67820;DHT22;54618;52.018;5.576;2023-06-10T02:42:06;18.80;47.70
67820;DHT22;54618;52.018;5.576;2023-06-10T02:44:31;18.70;47.80
67820;DHT22;54618;52.018;5.576;2023-06-10T02:46:57;18.70;47.60
67820;DHT22;54618;52.018;5.576;2023-06-10T02:49:23;18.70;47.90
67820;DHT22;54618;52.018;5.576;2023-06-10T02:51:50;18.60;47.90
67820;DHT22;54618;52.018;5.576;2023-06-10T02:54:19;18.60;48.20
67820;DHT22;54618;52.018;5.576;2023-06-10T02:56:45;18.50;48.30
67820;DHT22;54618;52.018;5.576;2023-06-10T02:59:11;18.50;48.10
67820;DHT22;54618;52.018;5.576;2023-06-10T03:01:36;18.50;48.20
67820;DHT22;54618;52.018;5.576;2023-06-10T03:04:04;18.50;48.20
67820;DHT22;54618;52.018;5.576;2023-06-10T03:06:30;18.60;48.10
67820;DHT22;54618;52.018;5.576;2023-06-10T03:08:55;18.60;48.20
67820;DHT22;54618;52.018;5.576;2023-06-10T03:11:21;18.60;48.00
67820;DHT22;54618;52.018;5.576;2023-06-10T03:13:46;18.60;47.90
67820;DHT22;54618;52.018;5.576;2023-06-10T03:16:12;18.60;48.10
67820;DHT22;54618;52.018;5.576;2023-06-10T03:18:38;18.60;48.20
67820;DHT22;54618;52.018;5.576;2023-06-10T03:21:03;18.50;48.10
67820;DHT22;54618;52.018;5.576;2023-06-10T03:23:29;18.50;48.20
67820;DHT22;54618;52.018;5.576;2023-06-10T03:25:55;18.50;48.20
67820;DHT22;54618;52.018;5.576;2023-06-10T03:28:20;18.50;48.30
67820;DHT22;54618;52.018;5.576;2023-06-10T03:30:47;18.50;48.40
67820;DHT22;54618;52.018;5.576;2023-06-10T03:33:13;18.50;48.30
67820;DHT22;54618;52.018;5.576;2023-06-10T03:35:39;18.50;48.40
67820;DHT22;54618;52.018;5.576;2023-06-10T03:38:08;18.50;48.40
67820;DHT22;54618;52.018;5.576;2023-06-10T03:40:33;18.50;48.80
67820;DHT22;54618;52.018;5.576;2023-06-10T03:43:00;18.50;48.50
67820;DHT22;54618;52.018;5.576;2023-06-10T03:45:26;18.50;48.60
67820;DHT22;54618;52.018;5.576;2023-06-10T03:47:53;18.50;48.60
67820;DHT22;54618;52.018;5.576;2023-06-10T03:50:19;18.50;48.60
67820;DHT22;54618;52.018;5.576;2023-06-10T03:52:44;18.50;48.70
67820;DHT22;54618;52.018;5.576;2023-06-10T03:55:11;18.50;48.90
67820;DHT22;54618;52.018;5.576;2023-06-10T03:57:39;18.40;48.90
67820;DHT22;54618;52.018;5.576;2023-06-10T04:00:08;18.40;49.30
67820;DHT22;54618;52.018;5.576;2023-06-10T04:02:36;18.40;49.30
67820;DHT22;54618;52.018;5.576;2023-06-10T04:05:02;18.30;49.20
67820;DHT22;54618;52.018;5.576;2023-06-10T04:07:28;18.40;49.90
67820;DHT22;54618;52.018;5.576;2023-06-10T04:09:53;18.40;49.30
67820;DHT22;54618;52.018;5.576;2023-06-10T04:12:19;18.40;49.40
67820;DHT22;54618;52.018;5.576;2023-06-10T04:14:45;18.40;49.30
67820;DHT22;54618;52.018;5.576;2023-06-10T04:17:10;18.40;49.20
67820;DHT22;54618;52.018;5.576;2023-06-10T04:19:36;18.40;49.40
67820;DHT22;54618;52.018;5.576;2023-06-10T04:22:02;18.40;49.40
67820;DHT22;54618;52.018;5.576;2023-06-10T04:24:29;18.50;49.50
67820;DHT22;54618;52.018;5.576;2023-06-10T04:26:54;18.50;49.50
67820;DHT22;54618;52.018;5.576;2023-06-10T04:29:20;18.50;49.70
67820;DHT22;54618;52.018;5.576;2023-06-10T04:31:45;18.50;49.70
67820;DHT22;54618;52.018;5.576;2023-06-10T04:34:12;18.50;49.70
67820;DHT22;54618;52.018;5.576;2023-06-10T04:36:38;18.60;49.90
67820;DHT22;54618;52.018;5.576;2023-06-10T04:39:03;18.60;49.60
67820;DHT22;54618;52.018;5.576;2023-06-10T04:41:31;18.70;49.70
67820;DHT22;54618;52.018;5.576;2023-06-10T04:43:56;18.80;49.60
67820;DHT22;54618;52.018;5.576;2023-06-10T04:46:23;18.90;49.50
67820;DHT22;54618;52.018;5.576;2023-06-10T04:48:49;19.00;49.40
67820;DHT22;54618;52.018;5.576;2023-06-10T04:51:15;19.20;49.60
67820;DHT22;54618;52.018;5.576;2023-06-10T04:53:42;19.30;49.50
67820;DHT22;54618;52.018;5.576;2023-06-10T04:56:07;19.40;49.20
67820;DHT22;54618;52.018;5.576;2023-06-10T04:58:33;19.60;49.10
67820;DHT22;54618;52.018;5.576;2023-06-10T05:00:59;19.70;49.20
67820;DHT22;54618;52.018;5.576;2023-06-10T05:03:26;19.90;49.00
67820;DHT22;54618;52.018;5.576;2023-06-10T05:05:51;20.00;48.90
67820;DHT22;54618;52.018;5.576;2023-06-10T05:08:17;20.10;49.00
67820;DHT22;54618;52.018;5.576;2023-06-10T05:10:43;20.20;48.70
67820;DHT22;54618;52.018;5.576;2023-06-10T05:13:09;20.30;48.90
67820;DHT22;54618;52.018;5.576;2023-06-10T05:15:37;20.40;48.80
67820;DHT22;54618;52.018;5.576;2023-06-10T05:18:07;20.60;49.30
67820;DHT22;54618;52.018;5.576;2023-06-10T05:20:33;20.70;49.10
67820;DHT22;54618;52.018;5.576;2023-06-10T05:22:58;20.80;48.60
67820;DHT22;54618;52.018;5.576;2023-06-10T05:25:26;20.90;48.70
67820;DHT22;54618;52.018;5.576;2023-06-10T05:27:52;20.90;48.80
67820;DHT22;54618;52.018;5.576;2023-06-10T05:30:18;21.00;48.70
67820;DHT22;54618;52.018;5.576;2023-06-10T05:32:44;21.10;48.70
67820;DHT22;54618;52.018;5.576;2023-06-10T05:35:09;21.20;48.50
67820;DHT22;54618;52.018;5.576;2023-06-10T05:37:38;21.30;48.80
67820;DHT22;54618;52.018;5.576;2023-06-10T05:40:04;21.40;49.20
67820;DHT22;54618;52.018;5.576;2023-06-10T05:42:30;21.50;48.80
67820;DHT22;54618;52.018;5.576;2023-06-10T05:44:55;21.60;48.50
67820;DHT22;54618;52.018;5.576;2023-06-10T05:47:21;21.60;48.70
67820;DHT22;54618;52.018;5.576;2023-06-10T05:49:46;21.60;48.80
67820;DHT22;54618;52.018;5.576;2023-06-10T05:52:14;21.60;48.80
67820;DHT22;54618;52.018;5.576;2023-06-10T05:54:40;21.60;48.90
67820;DHT22;54618;52.018;5.576;2023-06-10T05:57:06;21.70;48.90
67820;DHT22;54618;52.018;5.576;2023-06-10T05:59:31;21.80;48.90
67820;DHT22;54618;52.018;5.576;2023-06-10T06:01:58;21.90;48.80
67820;DHT22;54618;52.018;5.576;2023-06-10T06:04:23;21.90;48.70
67820;DHT22;54618;52.018;5.576;2023-06-10T06:06:49;22.00;48.60
67820;DHT22;54618;52.018;5.576;2023-06-10T06:09:14;22.00;48.60
67820;DHT22;54618;52.018;5.576;2023-06-10T06:11:41;22.10;48.90
67820;DHT22;54618;52.018;5.576;2023-06-10T06:14:06;22.10;48.60
67820;DHT22;54618;52.018;5.576;2023-06-10T06:16:32;22.20;48.60
67820;DHT22;54618;52.018;5.576;2023-06-10T06:18:58;22.20;48.60
67820;DHT22;54618;52.018;5.576;2023-06-10T06:21:23;22.30;48.70
67820;DHT22;54618;52.018;5.576;2023-06-10T06:23:49;22.30;48.70
67820;DHT22;54618;52.018;5.576;2023-06-10T06:26:15;22.40;48.60
67820;DHT22;54618;52.018;5.576;2023-06-10T06:28:40;22.40;48.60
67820;DHT22;54618;52.018;5.576;2023-06-10T06:31:07;22.40;48.60
67820;DHT22;54618;52.018;5.576;2023-06-10T06:33:32;22.50;49.20
67820;DHT22;54618;52.018;5.576;2023-06-10T06:35:58;22.60;48.50
67820;DHT22;54618;52.018;5.576;2023-06-10T06:38:25;22.70;48.50
67820;DHT22;54618;52.018;5.576;2023-06-10T06:40:51;22.80;48.40
67820;DHT22;54618;52.018;5.576;2023-06-10T06:43:16;22.90;48.40
67820;DHT22;54618;52.018;5.576;2023-06-10T06:45:44;22.90;48.40
67820;DHT22;54618;52.018;5.576;2023-06-10T06:48:11;23.10;48.50
67820;DHT22;54618;52.018;5.576;2023-06-10T06:50:36;23.20;48.40
67820;DHT22;54618;52.018;5.576;2023-06-10T06:53:03;23.20;48.20
67820;DHT22;54618;52.018;5.576;2023-06-10T06:55:29;23.30;48.40
67820;DHT22;54618;52.018;5.576;2023-06-10T06:57:54;23.40;48.50
67820;DHT22;54618;52.018;5.576;2023-06-10T07:00:20;23.40;48.10
67820;DHT22;54618;52.018;5.576;2023-06-10T07:02:46;23.50;48.00
67820;DHT22;54618;52.018;5.576;2023-06-10T07:05:12;23.60;48.00
67820;DHT22;54618;52.018;5.576;2023-06-10T07:07:37;23.70;48.10
67820;DHT22;54618;52.018;5.576;2023-06-10T07:10:03;23.80;48.10
67820;DHT22;54618;52.018;5.576;2023-06-10T07:12:29;23.90;48.00
67820;DHT22;54618;52.018;5.576;2023-06-10T07:14:54;24.00;48.60
67820;DHT22;54618;52.018;5.576;2023-06-10T07:17:20;24.10;47.80
67820;DHT22;54618;52.018;5.576;2023-06-10T07:19:46;24.20;48.80
67820;DHT22;54618;52.018;5.576;2023-06-10T07:22:12;24.40;47.70
67820;DHT22;54618;52.018;5.576;2023-06-10T07:24:37;24.50;47.60
67820;DHT22;54618;52.018;5.576;2023-06-10T07:27:03;24.60;47.60
67820;DHT22;54618;52.018;5.576;2023-06-10T07:29:28;24.70;47.60
67820;DHT22;54618;52.018;5.576;2023-06-10T07:31:54;24.80;47.50
67820;DHT22;54618;52.018;5.576;2023-06-10T07:34:20;24.90;47.20
67820;DHT22;54618;52.018;5.576;2023-06-10T07:36:45;24.90;47.30
67820;DHT22;54618;52.018;5.576;2023-06-10T07:39:12;24.90;48.00
67820;DHT22;54618;52.018;5.576;2023-06-10T07:41:38;25.10;47.40
67820;DHT22;54618;52.018;5.576;2023-06-10T07:44:03;25.10;47.20
67820;DHT22;54618;52.018;5.576;2023-06-10T07:46:29;25.10;47.30
67820;DHT22;54618;52.018;5.576;2023-06-10T07:48:55;25.20;47.60
67820;DHT22;54618;52.018;5.576;2023-06-10T07:51:21;25.30;47.70
67820;DHT22;54618;52.018;5.576;2023-06-10T07:53:46;25.50;47.20
67820;DHT22;54618;52.018;5.576;2023-06-10T07:56:12;25.50;47.10
67820;DHT22;54618;52.018;5.576;2023-06-10T07:58:38;25.60;47.10
67820;DHT22;54618;52.018;5.576;2023-06-10T08:01:03;25.70;47.30
67820;DHT22;54618;52.018;5.576;2023-06-10T08:03:29;25.80;46.90
67820;DHT22;54618;52.018;5.576;2023-06-10T08:05:55;26.00;47.00
67820;DHT22;54618;52.018;5.576;2023-06-10T08:08:20;26.10;46.90
67820;DHT22;54618;52.018;5.576;2023-06-10T08:10:46;26.20;47.00
67820;DHT22;54618;52.018;5.576;2023-06-10T08:13:12;26.30;46.80
67820;DHT22;54618;52.018;5.576;2023-06-10T08:15:37;26.40;46.80
67820;DHT22;54618;52.018;5.576;2023-06-10T08:18:07;26.50;47.40
67820;DHT22;54618;52.018;5.576;2023-06-10T08:20:33;26.70;47.00
67820;DHT22;54618;52.018;5.576;2023-06-10T08:23:00;27.10;47.20
67820;DHT22;54618;52.018;5.576;2023-06-10T08:25:27;27.20;46.60
67820;DHT22;54618;52.018;5.576;2023-06-10T08:27:53;27.40;46.40
67820;DHT22;54618;52.018;5.576;2023-06-10T08:30:24;27.30;46.60
67820;DHT22;54618;52.018;5.576;2023-06-10T08:32:50;27.40;46.30
67820;DHT22;54618;52.018;5.576;2023-06-10T08:35:17;27.50;46.00
67820;DHT22;54618;52.018;5.576;2023-06-10T08:37:44;27.60;46.10
67820;DHT22;54618;52.018;5.576;2023-06-10T08:40:10;27.70;45.70
67820;DHT22;54618;52.018;5.576;2023-06-10T08:42:59;27.70;45.90
67820;DHT22;54618;52.018;5.576;2023-06-10T08:45:32;27.80;44.50
67820;DHT22;54618;52.018;5.576;2023-06-10T08:48:03;28.00;45.10
67820;DHT22;54618;52.018;5.576;2023-06-10T08:50:34;28.20;45.50
67820;DHT22;54618;52.018;5.576;2023-06-10T08:53:05;28.30;45.80
67820;DHT22;54618;52.018;5.576;2023-06-10T08:55:34;28.30;45.70
67820;DHT22;54618;52.018;5.576;2023-06-10T08:58:01;28.30;42.80
67820;DHT22;54618;52.018;5.576;2023-06-10T09:03:04;28.70;46.20
67820;DHT22;54618;52.018;5.576;2023-06-10T09:05:33;28.80;45.50
67820;DHT22;54618;52.018;5.576;2023-06-10T09:08:00;28.90;44.80
67820;DHT22;54618;52.018;5.576;2023-06-10T09:10:26;29.10;45.50
67820;DHT22;54618;52.018;5.576;2023-06-10T09:12:52;29.40;45.00
67820;DHT22;54618;52.018;5.576;2023-06-10T09:15:18;29.60;44.80
67820;DHT22;54618;52.018;5.576;2023-06-10T09:17:44;29.80;44.60
67820;DHT22;54618;52.018;5.576;2023-06-10T09:20:11;29.80;44.80
67820;DHT22;54618;52.018;5.576;2023-06-10T09:22:36;29.90;45.50
67820;DHT22;54618;52.018;5.576;2023-06-10T09:25:05;30.10;45.30
67820;DHT22;54618;52.018;5.576;2023-06-10T09:27:52;30.10;44.80
67820;DHT22;54618;52.018;5.576;2023-06-10T09:30:26;30.20;42.50
67820;DHT22;54618;52.018;5.576;2023-06-10T09:32:56;30.30;44.70
67820;DHT22;54618;52.018;5.576;2023-06-10T09:35:26;30.30;43.90
67820;DHT22;54618;52.018;5.576;2023-06-10T09:37:57;30.20;43.90
67820;DHT22;54618;52.018;5.576;2023-06-10T09:40:23;30.30;43.90
67820;DHT22;54618;52.018;5.576;2023-06-10T09:42:58;30.30;44.40
67820;DHT22;54618;52.018;5.576;2023-06-10T09:45:30;30.50;43.80
67820;DHT22;54618;52.018;5.576;2023-06-10T09:47:59;30.60;42.80
67820;DHT22;54618;52.018;5.576;2023-06-10T09:50:25;30.40;43.40
67820;DHT22;54618;52.018;5.576;2023-06-10T09:52:51;30.50;43.80
67820;DHT22;54618;52.018;5.576;2023-06-10T09:55:17;30.80;43.00
67820;DHT22;54618;52.018;5.576;2023-06-10T09:57:44;30.80;44.00
67820;DHT22;54618;52.018;5.576;2023-06-10T10:00:14;30.60;42.30
67820;DHT22;54618;52.018;5.576;2023-06-10T10:02:51;30.60;42.50
67820;DHT22;54618;52.018;5.576;2023-06-10T10:05:18;30.80;40.90
67820;DHT22;54618;52.018;5.576;2023-06-10T10:07:45;30.70;41.10
67820;DHT22;54618;52.018;5.576;2023-06-10T10:10:12;30.80;41.90
67820;DHT22;54618;52.018;5.576;2023-06-10T10:12:38;31.10;41.30
67820;DHT22;54618;52.018;5.576;2023-06-10T10:15:08;31.20;41.60
67820;DHT22;54618;52.018;5.576;2023-06-10T10:17:35;30.90;39.70
67820;DHT22;54618;52.018;5.576;2023-06-10T10:20:04;30.80;39.70
67820;DHT22;54618;52.018;5.576;2023-06-10T10:22:41;31.00;41.50
67820;DHT22;54618;52.018;5.576;2023-06-10T10:25:13;31.00;39.70
67820;DHT22;54618;52.018;5.576;2023-06-10T10:27:49;31.20;40.20
67820;DHT22;54618;52.018;5.576;2023-06-10T10:30:17;30.90;38.70
67820;DHT22;54618;52.018;5.576;2023-06-10T10:33:03;31.10;39.80
67820;DHT22;54618;52.018;5.576;2023-06-10T10:35:31;31.30;38.30
67820;DHT22;54618;52.018;5.576;2023-06-10T10:37:58;31.50;39.60
67820;DHT22;54618;52.018;5.576;2023-06-10T10:40:25;31.50;39.40
67820;DHT22;54618;52.018;5.576;2023-06-10T10:42:55;31.50;39.40
67820;DHT22;54618;52.018;5.576;2023-06-10T10:45:21;31.70;40.00
67820;DHT22;54618;52.018;5.576;2023-06-10T10:47:52;32.00;39.20
67820;DHT22;54618;52.018;5.576;2023-06-10T10:50:19;32.30;38.60
67820;DHT22;54618;52.018;5.576;2023-06-10T10:55:20;32.50;38.10
67820;DHT22;54618;52.018;5.576;2023-06-10T10:58:11;32.80;39.90
67820;DHT22;54618;52.018;5.576;2023-06-10T11:00:44;33.10;38.60
67820;DHT22;54618;52.018;5.576;2023-06-10T11:03:14;33.40;37.70
67820;DHT22;54618;52.018;5.576;2023-06-10T11:05:41;33.60;38.00
67820;DHT22;54618;52.018;5.576;2023-06-10T11:08:10;33.80;38.80
67820;DHT22;54618;52.018;5.576;2023-06-10T11:10:40;33.70;33.90
67820;DHT22;54618;52.018;5.576;2023-06-10T11:13:09;33.70;38.40
67820;DHT22;54618;52.018;5.576;2023-06-10T11:15:46;33.70;35.00
67820;DHT22;54618;52.018;5.576;2023-06-10T11:20:43;33.90;38.80
67820;DHT22;54618;52.018;5.576;2023-06-10T11:23:09;33.90;39.10
67820;DHT22;54618;52.018;5.576;2023-06-10T11:25:41;34.00;39.30
67820;DHT22;54618;52.018;5.576;2023-06-10T11:28:19;34.20;36.50
67820;DHT22;54618;52.018;5.576;2023-06-10T11:30:45;34.30;36.50
67820;DHT22;54618;52.018;5.576;2023-06-10T11:33:16;34.40;38.50
67820;DHT22;54618;52.018;5.576;2023-06-10T11:35:43;34.30;38.10
67820;DHT22;54618;52.018;5.576;2023-06-10T11:38:09;34.30;39.00
67820;DHT22;54618;52.018;5.576;2023-06-10T11:40:36;34.30;37.50
67820;DHT22;54618;52.018;5.576;2023-06-10T11:43:03;34.30;37.60
67820;DHT22;54618;52.018;5.576;2023-06-10T11:45:29;34.40;36.70
67820;DHT22;54618;52.018;5.576;2023-06-10T11:47:56;34.30;37.00
67820;DHT22;54618;52.018;5.576;2023-06-10T11:50:32;34.20;37.10
67820;DHT22;54618;52.018;5.576;2023-06-10T11:52:58;34.20;34.60
67820;DHT22;54618;52.018;5.576;2023-06-10T11:55:44;34.40;37.30
67820;DHT22;54618;52.018;5.576;2023-06-10T11:58:20;34.40;36.00
67820;DHT22;54618;52.018;5.576;2023-06-10T12:00:51;34.40;36.70
67820;DHT22;54618;52.018;5.576;2023-06-10T12:03:17;34.50;36.60
67820;DHT22;54618;52.018;5.576;2023-06-10T12:06:03;34.60;36.20
67820;DHT22;54618;52.018;5.576;2023-06-10T12:08:29;34.40;31.70
67820;DHT22;54618;52.018;5.576;2023-06-10T12:10:56;34.40;36.70
67820;DHT22;54618;52.018;5.576;2023-06-10T12:13:22;34.60;36.60
67820;DHT22;54618;52.018;5.576;2023-06-10T12:15:49;34.70;36.60
67820;DHT22;54618;52.018;5.576;2023-06-10T12:18:16;34.70;36.80
67820;DHT22;54618;52.018;5.576;2023-06-10T12:20:43;34.70;36.30
67820;DHT22;54618;52.018;5.576;2023-06-10T12:23:12;34.70;36.10
67820;DHT22;54618;52.018;5.576;2023-06-10T12:25:38;34.70;34.10
67820;DHT22;54618;52.018;5.576;2023-06-10T12:28:09;34.50;32.00
67820;DHT22;54618;52.018;5.576;2023-06-10T12:30:39;34.20;36.60
67820;DHT22;54618;52.018;5.576;2023-06-10T12:33:19;34.30;36.50
67820;DHT22;54618;52.018;5.576;2023-06-10T12:35:52;34.40;32.20
67820;DHT22;54618;52.018;5.576;2023-06-10T12:38:22;34.40;34.50
67820;DHT22;54618;52.018;5.576;2023-06-10T12:40:49;34.20;34.70
67820;DHT22;54618;52.018;5.576;2023-06-10T12:43:20;34.20;35.90
67820;DHT22;54618;52.018;5.576;2023-06-10T12:45:45;34.30;35.70
67820;DHT22;54618;52.018;5.576;2023-06-10T12:48:18;34.40;35.90
67820;DHT22;54618;52.018;5.576;2023-06-10T12:50:47;34.50;35.20
67820;DHT22;54618;52.018;5.576;2023-06-10T12:53:12;34.60;35.70
67820;DHT22;54618;52.018;5.576;2023-06-10T12:55:39;34.70;35.60
67820;DHT22;54618;52.018;5.576;2023-06-10T12:58:04;34.70;35.80
67820;DHT22;54618;52.018;5.576;2023-06-10T13:00:31;34.70;35.70
67820;DHT22;54618;52.018;5.576;2023-06-10T13:02:59;34.70;35.60
67820;DHT22;54618;52.018;5.576;2023-06-10T13:05:25;34.60;36.00
67820;DHT22;54618;52.018;5.576;2023-06-10T13:07:51;34.50;35.80
67820;DHT22;54618;52.018;5.576;2023-06-10T13:10:17;34.50;35.60
67820;DHT22;54618;52.018;5.576;2023-06-10T13:12:44;34.50;34.90
67820;DHT22;54618;52.018;5.576;2023-06-10T13:15:10;34.40;34.70
67820;DHT22;54618;52.018;5.576;2023-06-10T13:17:38;34.10;34.70
67820;DHT22;54618;52.018;5.576;2023-06-10T13:20:08;33.90;32.00
67820;DHT22;54618;52.018;5.576;2023-06-10T13:22:39;33.80;34.60
67820;DHT22;54618;52.018;5.576;2023-06-10T13:25:08;33.60;34.60
67820;DHT22;54618;52.018;5.576;2023-06-10T13:27:36;33.60;35.40
67820;DHT22;54618;52.018;5.576;2023-06-10T13:30:11;33.60;35.40
67820;DHT22;54618;52.018;5.576;2023-06-10T13:32:37;33.70;34.80
67820;DHT22;54618;52.018;5.576;2023-06-10T13:35:03;33.70;34.50
67820;DHT22;54618;52.018;5.576;2023-06-10T13:37:29;33.60;33.50
67820;DHT22;54618;52.018;5.576;2023-06-10T13:39:54;33.30;33.60
67820;DHT22;54618;52.018;5.576;2023-06-10T13:42:20;33.10;34.10
67820;DHT22;54618;52.018;5.576;2023-06-10T13:44:49;33.10;34.30
67820;DHT22;54618;52.018;5.576;2023-06-10T13:47:15;33.20;33.70
67820;DHT22;54618;52.018;5.576;2023-06-10T13:49:41;33.10;33.50
67820;DHT22;54618;52.018;5.576;2023-06-10T13:52:07;32.90;34.00
67820;DHT22;54618;52.018;5.576;2023-06-10T13:54:33;32.90;33.80
67820;DHT22;54618;52.018;5.576;2023-06-10T13:57:01;32.90;33.30
67820;DHT22;54618;52.018;5.576;2023-06-10T13:59:27;32.50;32.50
67820;DHT22;54618;52.018;5.576;2023-06-10T14:01:53;32.30;33.30
67820;DHT22;54618;52.018;5.576;2023-06-10T14:04:18;32.10;33.00
67820;DHT22;54618;52.018;5.576;2023-06-10T14:06:44;32.10;34.10
67820;DHT22;54618;52.018;5.576;2023-06-10T14:09:12;32.20;33.30
67820;DHT22;54618;52.018;5.576;2023-06-10T14:11:38;32.30;33.20
67820;DHT22;54618;52.018;5.576;2023-06-10T14:14:03;32.20;33.30
67820;DHT22;54618;52.018;5.576;2023-06-10T14:16:29;32.30;33.80
67820;DHT22;54618;52.018;5.576;2023-06-10T14:18:55;32.40;33.10
67820;DHT22;54618;52.018;5.576;2023-06-10T14:21:20;32.30;32.80
67820;DHT22;54618;52.018;5.576;2023-06-10T14:23:46;32.10;32.80
67820;DHT22;54618;52.018;5.576;2023-06-10T14:26:14;32.00;32.50
67820;DHT22;54618;52.018;5.576;2023-06-10T14:28:40;32.10;32.70
67820;DHT22;54618;52.018;5.576;2023-06-10T14:31:08;32.10;32.90
67820;DHT22;54618;52.018;5.576;2023-06-10T14:33:34;32.20;32.60
67820;DHT22;54618;52.018;5.576;2023-06-10T14:35:59;32.10;32.40
67820;DHT22;54618;52.018;5.576;2023-06-10T14:38:25;32.10;32.90
67820;DHT22;54618;52.018;5.576;2023-06-10T14:40:51;32.20;32.70
67820;DHT22;54618;52.018;5.576;2023-06-10T14:43:17;32.20;33.00
67820;DHT22;54618;52.018;5.576;2023-06-10T14:45:43;32.20;33.00
67820;DHT22;54618;52.018;5.576;2023-06-10T14:48:09;32.10;32.50
67820;DHT22;54618;52.018;5.576;2023-06-10T14:50:38;32.10;33.00
67820;DHT22;54618;52.018;5.576;2023-06-10T14:53:09;32.20;33.20
67820;DHT22;54618;52.018;5.576;2023-06-10T14:55:34;32.30;32.40
67820;DHT22;54618;52.018;5.576;2023-06-10T14:58:00;32.20;32.80
67820;DHT22;54618;52.018;5.576;2023-06-10T15:00:25;32.20;32.50
67820;DHT22;54618;52.018;5.576;2023-06-10T15:02:51;32.10;32.60
67820;DHT22;54618;52.018;5.576;2023-06-10T15:05:18;32.00;32.30
67820;DHT22;54618;52.018;5.576;2023-06-10T15:07:47;31.90;32.20
67820;DHT22;54618;52.018;5.576;2023-06-10T15:10:13;31.70;32.10
67820;DHT22;54618;52.018;5.576;2023-06-10T15:12:38;31.50;31.90
67820;DHT22;54618;52.018;5.576;2023-06-10T15:15:04;31.40;32.20
67820;DHT22;54618;52.018;5.576;2023-06-10T15:17:30;31.30;31.90
67820;DHT22;54618;52.018;5.576;2023-06-10T15:19:56;31.40;32.30
67820;DHT22;54618;52.018;5.576;2023-06-10T15:22:21;31.40;32.00
67820;DHT22;54618;52.018;5.576;2023-06-10T15:24:47;31.40;32.50
67820;DHT22;54618;52.018;5.576;2023-06-10T15:27:13;31.50;32.50
67820;DHT22;54618;52.018;5.576;2023-06-10T15:29:39;31.60;32.70
67820;DHT22;54618;52.018;5.576;2023-06-10T15:32:05;31.80;32.40
67820;DHT22;54618;52.018;5.576;2023-06-10T15:34:31;31.80;32.30
67820;DHT22;54618;52.018;5.576;2023-06-10T15:36:57;31.80;32.00
67820;DHT22;54618;52.018;5.576;2023-06-10T15:39:22;31.80;32.10
67820;DHT22;54618;52.018;5.576;2023-06-10T15:41:50;31.70;31.90
67820;DHT22;54618;52.018;5.576;2023-06-10T15:44:15;31.60;32.50